createdAt,value
2023-02-09T00:01:24.800Z,71.85
2023-02-09T00:03:51.958Z,67.95
2023-02-09T00:06:20.696Z,65.80
2023-02-09T00:08:47.551Z,58.40
2023-02-09T00:11:46.901Z,71.65
2023-02-09T00:14:16.573Z,62.92
2023-02-09T00:16:43.716Z,71.28
2023-02-09T00:19:12.020Z,74.85
2023-02-09T00:21:39.884Z,73.22
2023-02-09T00:24:07.538Z,76.85
2023-02-09T00:26:34.469Z,82.45
2023-02-09T00:29:00.981Z,72.57
2023-02-09T00:31:27.599Z,64.85
2023-02-09T00:33:54.341Z,61.75
2023-02-09T00:36:21.362Z,60.42
2023-02-09T00:38:47.868Z,66.75
2023-02-09T00:41:16.175Z,63.22
2023-02-09T00:43:43.041Z,62.72
2023-02-09T00:46:09.970Z,75.70
2023-02-09T00:48:36.537Z,71.43
2023-02-09T00:51:03.329Z,74.07
2023-02-09T00:53:29.844Z,72.03
2023-02-09T00:55:56.622Z,73.88
2023-02-09T00:58:23.101Z,77.13
2023-02-09T01:00:49.905Z,68.32
2023-02-09T01:03:16.436Z,68.03
2023-02-09T01:05:43.520Z,67.32
2023-02-09T01:08:11.646Z,77.63
2023-02-09T01:10:38.650Z,74.40
2023-02-09T01:13:05.804Z,75.93
2023-02-09T01:15:32.484Z,72.18
2023-02-09T01:17:59.658Z,67.38
2023-02-09T01:20:26.442Z,71.57
2023-02-09T01:22:52.898Z,71.13
2023-02-09T01:25:19.369Z,59.90
2023-02-09T01:27:46.231Z,63.53
2023-02-09T01:30:13.219Z,53.78
2023-02-09T01:32:39.655Z,55.90
2023-02-09T01:35:06.596Z,59.97
2023-02-09T01:37:34.514Z,58.08
2023-02-09T01:40:01.504Z,62.63
2023-02-09T01:42:28.084Z,66.30
2023-02-09T01:45:42.051Z,62.33
2023-02-09T01:48:09.200Z,48.17
2023-02-09T01:50:40.998Z,47.72
2023-02-09T01:53:08.232Z,46.30
2023-02-09T01:55:40.103Z,44.83
2023-02-09T01:58:11.961Z,45.83
2023-02-09T02:00:38.494Z,51.30
2023-02-09T02:03:09.977Z,48.88
2023-02-09T02:05:39.287Z,53.50
2023-02-09T02:08:21.289Z,51.13
2023-02-09T02:10:47.957Z,56.13
2023-02-09T02:13:14.522Z,57.42
2023-02-09T02:16:04.818Z,59.90
2023-02-09T02:18:49.643Z,59.90
2023-02-09T02:21:41.594Z,62.90
2023-02-09T02:24:42.082Z,65.20
2023-02-09T02:27:32.300Z,60.90
2023-02-09T02:30:17.030Z,67.78
2023-02-09T02:32:59.390Z,56.70
2023-02-09T02:35:40.968Z,59.88
2023-02-09T02:38:37.877Z,60.15
2023-02-09T02:41:26.277Z,61.85
2023-02-09T02:44:17.198Z,64.28
2023-02-09T02:46:51.944Z,61.60
2023-02-09T02:49:34.520Z,58.45
2023-02-09T02:52:04.857Z,67.15
2023-02-09T02:54:46.648Z,57.50
2023-02-09T02:57:17.954Z,50.67
2023-02-09T02:59:55.223Z,56.78
2023-02-09T03:02:26.285Z,55.72
2023-02-09T03:04:55.606Z,56.38
2023-02-09T03:07:22.114Z,52.60
2023-02-09T03:09:50.688Z,59.70
2023-02-09T03:12:40.156Z,54.35
2023-02-09T03:15:16.185Z,57.05
2023-02-09T03:17:52.216Z,53.55
2023-02-09T03:20:37.390Z,54.92
2023-02-09T03:23:16.442Z,53.38
2023-02-09T03:25:48.470Z,47.33
2023-02-09T03:28:23.737Z,51.45
2023-02-09T03:30:52.972Z,55.30
2023-02-09T03:33:26.779Z,49.22
2023-02-09T03:35:58.179Z,58.05
2023-02-09T03:38:25.135Z,58.28
2023-02-09T03:40:51.529Z,58.80
2023-02-09T03:43:17.954Z,55.08
2023-02-09T03:45:44.421Z,55.42
2023-02-09T03:48:10.885Z,51.45
2023-02-09T03:50:37.521Z,53.45
2023-02-09T03:53:08.284Z,59.22
2023-02-09T03:55:35.817Z,55.13
2023-02-09T03:58:02.254Z,50.72
2023-02-09T04:00:28.741Z,57.80
2023-02-09T04:02:56.350Z,48.38
2023-02-09T04:05:23.040Z,54.83
2023-02-09T04:07:49.779Z,56.85
2023-02-09T04:10:16.219Z,60.47
2023-02-09T04:12:42.646Z,56.05
2023-02-09T04:15:09.587Z,51.05
2023-02-09T04:17:36.010Z,51.00
2023-02-09T04:20:02.432Z,56.50
2023-02-09T04:22:28.876Z,52.72
2023-02-09T04:24:55.267Z,57.00
2023-02-09T04:27:21.903Z,56.40
2023-02-09T04:29:48.311Z,50.40
2023-02-09T04:32:20.704Z,50.78
2023-02-09T04:34:47.106Z,48.72
2023-02-09T04:37:13.503Z,50.03
2023-02-09T04:39:39.942Z,48.65
2023-02-09T04:42:06.361Z,55.30
2023-02-09T04:44:32.804Z,48.33
2023-02-09T04:46:59.221Z,49.58
2023-02-09T04:49:25.860Z,56.60
2023-02-09T04:51:52.307Z,50.60
2023-02-09T04:54:18.721Z,60.67
2023-02-09T04:56:45.110Z,62.22
2023-02-09T04:59:30.147Z,52.92
2023-02-09T05:01:56.579Z,49.55
2023-02-09T05:04:23.078Z,57.42
2023-02-09T05:06:49.498Z,57.53
2023-02-09T05:09:15.934Z,57.40
2023-02-09T05:11:42.342Z,50.53
2023-02-09T05:14:08.788Z,55.17
2023-02-09T05:16:36.013Z,60.30
2023-02-09T05:19:03.516Z,57.58
2023-02-09T05:21:29.925Z,60.45
2023-02-09T05:23:56.356Z,64.30
2023-02-09T05:26:22.791Z,62.63
2023-02-09T05:28:49.242Z,61.35
2023-02-09T05:31:16.532Z,55.22
2023-02-09T05:33:43.151Z,60.30
2023-02-09T05:36:09.948Z,50.95
2023-02-09T05:38:36.587Z,51.53
2023-02-09T05:41:08.923Z,48.00
2023-02-09T05:43:35.907Z,50.28
2023-02-09T05:46:03.296Z,51.88
2023-02-09T05:48:30.028Z,49.83
2023-02-09T05:51:01.529Z,38.58
2023-02-09T05:53:27.963Z,45.45
2023-02-09T05:55:54.352Z,55.45
2023-02-09T05:58:20.780Z,55.15
2023-02-09T06:00:47.449Z,63.67
2023-02-09T06:03:14.090Z,56.33
2023-02-09T06:05:40.666Z,52.67
2023-02-09T06:08:07.119Z,50.08
2023-02-09T06:10:33.590Z,52.58
2023-02-09T06:13:00.088Z,52.13
2023-02-09T06:15:26.514Z,49.03
2023-02-09T06:17:52.961Z,44.70
2023-02-09T06:20:19.533Z,52.65
2023-02-09T06:22:46.020Z,51.50
2023-02-09T06:25:12.624Z,119.53
2023-02-09T06:27:39.072Z,85.38
2023-02-09T06:30:06.923Z,47.67
2023-02-09T06:32:33.362Z,48.85
2023-02-09T06:34:59.766Z,46.05
2023-02-09T06:37:26.279Z,51.47
2023-02-09T06:39:52.794Z,45.08
2023-02-09T06:42:19.396Z,45.20
2023-02-09T06:44:45.882Z,42.40
2023-02-09T06:47:12.332Z,42.95
2023-02-09T06:49:38.799Z,49.33
2023-02-09T06:52:05.587Z,40.00
2023-02-09T06:54:32.202Z,45.88
2023-02-09T06:56:58.697Z,49.75
2023-02-09T06:59:25.259Z,45.22
2023-02-09T07:01:54.813Z,51.50
2023-02-09T07:04:21.803Z,36.78
2023-02-09T07:06:48.223Z,42.58
2023-02-09T07:09:14.692Z,36.30
2023-02-09T07:11:41.135Z,40.90
2023-02-09T07:14:07.578Z,43.90
2023-02-09T07:16:34.070Z,43.80
2023-02-09T07:19:01.134Z,40.78
2023-02-09T07:21:27.757Z,43.72
2023-02-09T07:23:54.327Z,35.90
2023-02-09T07:26:20.828Z,43.63
2023-02-09T07:28:48.108Z,40.72
2023-02-09T07:31:16.104Z,39.40
2023-02-09T07:33:42.931Z,41.92
2023-02-09T07:36:13.193Z,46.08
2023-02-09T07:38:40.610Z,48.65
2023-02-09T07:41:12.678Z,44.03
2023-02-09T07:43:39.099Z,49.92
2023-02-09T07:46:07.265Z,47.03
2023-02-09T07:48:34.589Z,53.47
2023-02-09T07:51:01.591Z,45.33
2023-02-09T07:53:28.702Z,47.80
2023-02-09T07:55:55.278Z,44.33
2023-02-09T07:58:22.002Z,35.95
2023-02-09T08:00:50.337Z,36.42
2023-02-09T08:03:19.665Z,34.72
2023-02-09T08:06:00.426Z,38.78
2023-02-09T08:08:26.928Z,36.20
2023-02-09T08:10:55.550Z,26.95
2023-02-09T08:13:23.215Z,22.52
2023-02-09T08:15:58.257Z,22.52
2023-02-09T08:18:30.750Z,17.33
2023-02-09T08:21:03.197Z,18.60
2023-02-09T08:23:32.994Z,15.65
2023-02-09T08:26:02.852Z,17.33
2023-02-09T08:28:42.899Z,14.32
2023-02-09T08:31:15.308Z,15.65
2023-02-09T08:33:42.890Z,19.55
2023-02-09T08:36:11.243Z,12.80
2023-02-09T08:38:38.060Z,13.57
2023-02-09T08:41:09.432Z,15.05
2023-02-09T08:43:36.385Z,22.35
2023-02-09T08:46:04.107Z,13.90
2023-02-09T08:48:35.670Z,13.98
2023-02-09T08:51:02.630Z,13.57
2023-02-09T08:53:29.378Z,14.57
2023-02-09T08:55:55.982Z,13.60
2023-02-09T08:58:22.459Z,14.00
2023-02-09T09:00:48.918Z,14.23
2023-02-09T09:03:16.570Z,13.10
2023-02-09T09:05:43.022Z,11.88
2023-02-09T09:08:12.097Z,14.63
2023-02-09T09:10:38.515Z,12.68
2023-02-09T09:13:04.965Z,12.80
2023-02-09T09:15:31.551Z,11.90
2023-02-09T09:17:57.968Z,11.55
2023-02-09T09:20:24.405Z,11.93
2023-02-09T09:25:18.564Z,13.45
2023-02-09T09:27:45.145Z,15.25
2023-02-09T09:30:12.490Z,11.43
2023-02-09T09:32:38.978Z,14.07
2023-02-09T09:35:05.910Z,12.48
2023-02-09T09:37:32.887Z,13.27
2023-02-09T09:40:00.242Z,12.30
2023-02-09T09:42:42.726Z,13.80
2023-02-09T09:45:16.232Z,15.27
2023-02-09T09:47:44.751Z,11.55
2023-02-09T09:50:19.052Z,14.98
2023-02-09T09:52:52.500Z,12.55
2023-02-09T09:55:30.579Z,11.18
2023-02-09T09:58:01.147Z,13.65
2023-02-09T10:00:33.157Z,13.77
2023-02-09T10:02:59.558Z,14.77
2023-02-09T10:05:35.305Z,15.20
2023-02-09T10:08:10.586Z,10.57
2023-02-09T10:11:05.070Z,12.77
2023-02-09T10:13:44.494Z,12.52
2023-02-09T10:16:34.431Z,12.75
2023-02-09T10:19:04.502Z,11.93
2023-02-09T10:21:34.341Z,14.90
2023-02-09T10:24:00.676Z,12.02
2023-02-09T10:26:37.867Z,13.07
2023-02-09T10:29:25.431Z,10.93
2023-02-09T10:32:23.571Z,13.07
2023-02-09T10:34:56.792Z,11.35
2023-02-09T10:37:32.963Z,13.38
2023-02-09T10:40:13.587Z,12.90
2023-02-09T10:42:49.323Z,16.45
2023-02-09T10:45:34.010Z,14.07
2023-02-09T10:48:08.409Z,12.93
2023-02-09T10:50:56.557Z,12.85
2023-02-09T10:53:33.005Z,15.98
2023-02-09T10:56:02.102Z,13.88
2023-02-09T10:58:35.105Z,11.25
2023-02-09T11:01:10.462Z,13.52
2023-02-09T11:03:56.167Z,13.27
2023-02-09T11:06:23.161Z,14.07
2023-02-09T11:08:59.799Z,14.20
2023-02-09T11:11:32.919Z,12.45
2023-02-09T11:14:00.300Z,12.82
2023-02-09T11:17:06.575Z,13.80
2023-02-09T11:19:54.896Z,13.18
2023-02-09T11:22:46.359Z,13.80
2023-02-09T11:25:25.028Z,13.45
2023-02-09T11:28:22.421Z,13.88
2023-02-09T11:31:14.193Z,12.88
2023-02-09T11:34:11.573Z,10.50
2023-02-09T11:37:00.452Z,10.82
2023-02-09T11:39:41.265Z,10.40
2023-02-09T11:42:53.109Z,12.43
2023-02-09T11:45:38.865Z,10.00
2023-02-09T11:48:19.790Z,11.55
2023-02-09T11:50:53.833Z,11.15
2023-02-09T11:53:23.541Z,13.90
2023-02-09T11:55:57.266Z,12.55
2023-02-09T11:58:45.600Z,11.93
2023-02-09T12:01:23.993Z,14.55
2023-02-09T12:04:00.156Z,13.82
2023-02-09T12:06:30.641Z,13.40
2023-02-09T12:09:21.184Z,12.77
2023-02-09T12:12:02.150Z,12.43
2023-02-09T12:14:45.726Z,14.85
2023-02-09T12:17:18.841Z,10.88
2023-02-09T12:19:56.033Z,12.00
2023-02-09T12:22:34.848Z,12.65
2023-02-09T12:25:53.881Z,11.70
2023-02-09T12:28:35.374Z,14.05
2023-02-09T12:31:05.968Z,13.57
2023-02-09T12:33:36.530Z,12.77
2023-02-09T12:36:10.741Z,12.15
2023-02-09T12:39:03.991Z,12.60
2023-02-09T12:41:45.475Z,13.57
2023-02-09T12:44:11.861Z,12.50
2023-02-09T12:46:44.251Z,12.68
2023-02-09T12:49:13.798Z,11.40
2023-02-09T12:51:43.414Z,13.98
2023-02-09T12:54:29.054Z,10.93
2023-02-09T12:56:56.356Z,13.93
2023-02-09T12:59:24.987Z,14.57
2023-02-09T13:02:07.187Z,15.05
2023-02-09T13:04:39.002Z,13.18
2023-02-09T13:07:15.450Z,13.23
2023-02-09T13:09:43.148Z,10.73
2023-02-09T13:12:15.774Z,11.38
2023-02-09T13:14:44.372Z,13.50
2023-02-09T13:17:32.382Z,10.52
2023-02-09T13:20:30.002Z,9.85
2023-02-09T13:23:28.049Z,13.57
2023-02-09T13:26:19.679Z,13.80
2023-02-09T13:28:46.520Z,13.30
2023-02-09T13:31:23.202Z,10.18
2023-02-09T13:33:55.880Z,13.70
2023-02-09T13:36:45.724Z,13.17
2023-02-09T13:39:23.976Z,14.18
2023-02-09T13:41:53.647Z,12.02
2023-02-09T13:44:22.993Z,13.95
2023-02-09T13:47:01.846Z,17.08
2023-02-09T13:49:30.195Z,12.55
2023-02-09T13:52:16.384Z,13.15
2023-02-09T13:54:43.797Z,12.70
2023-02-09T13:57:23.643Z,16.92
2023-02-09T13:59:50.617Z,15.88
2023-02-09T14:02:24.496Z,15.43
2023-02-09T14:04:56.709Z,17.17
2023-02-09T14:07:28.245Z,20.05
2023-02-09T14:10:11.341Z,17.05
2023-02-09T14:12:52.783Z,17.77
2023-02-09T14:15:42.826Z,14.40
2023-02-09T14:18:49.183Z,14.40
2023-02-09T14:21:17.541Z,16.13
2023-02-09T14:23:55.804Z,20.35
2023-02-09T14:26:27.989Z,17.70
2023-02-09T14:29:33.100Z,16.10
2023-02-09T14:32:31.911Z,18.33
2023-02-09T14:35:00.685Z,16.80
2023-02-09T14:37:30.281Z,18.48
2023-02-09T14:40:18.794Z,19.27
2023-02-09T14:43:06.834Z,17.77
2023-02-09T14:45:48.976Z,19.45
2023-02-09T14:48:19.741Z,17.20
2023-02-09T14:50:48.597Z,15.18
2023-02-09T14:53:16.580Z,18.48
2023-02-09T14:55:45.063Z,18.08
2023-02-09T14:58:29.333Z,18.88
2023-02-09T15:00:58.374Z,20.25
2023-02-09T15:03:25.091Z,19.70
2023-02-09T15:05:57.298Z,17.95
2023-02-09T15:08:25.814Z,18.20
2023-02-09T15:10:56.656Z,22.58
2023-02-09T15:13:23.999Z,18.48
2023-02-09T15:15:50.544Z,19.38
2023-02-09T15:18:22.380Z,18.60
2023-02-09T15:20:50.245Z,16.38
2023-02-09T15:23:17.525Z,21.92
2023-02-09T15:25:44.879Z,18.10
2023-02-09T15:28:31.240Z,21.15
2023-02-09T15:30:59.151Z,20.30
2023-02-09T15:33:27.495Z,18.13
2023-02-09T15:35:54.204Z,19.20
2023-02-09T15:38:20.839Z,21.48
2023-02-09T15:41:08.302Z,18.33
2023-02-09T15:43:54.212Z,22.42
2023-02-09T15:46:39.724Z,19.15
2023-02-09T15:49:07.355Z,22.13
2023-02-09T15:51:36.766Z,20.77
2023-02-09T15:54:09.207Z,22.90
2023-02-09T15:56:39.944Z,19.45
2023-02-09T15:59:06.708Z,18.92
2023-02-09T16:01:34.486Z,21.25
2023-02-09T16:04:13.573Z,22.95
2023-02-09T16:06:48.450Z,19.13
2023-02-09T16:09:21.888Z,23.15
2023-02-09T16:11:48.556Z,21.70
2023-02-09T16:14:20.279Z,22.38
2023-02-09T16:16:48.275Z,20.88
2023-02-09T16:19:15.593Z,22.30
2023-02-09T16:21:44.946Z,20.45
2023-02-09T16:24:23.072Z,21.08
2023-02-09T16:26:49.552Z,20.05
2023-02-09T16:29:16.171Z,26.35
2023-02-09T16:31:42.651Z,22.77
2023-02-09T16:34:15.153Z,22.08
2023-02-09T16:36:42.379Z,24.05
2023-02-09T16:39:27.208Z,22.13
2023-02-09T16:41:53.703Z,25.17
2023-02-09T16:44:23.427Z,20.63
2023-02-09T16:46:53.779Z,27.67
2023-02-09T16:49:31.918Z,26.00
2023-02-09T16:52:02.806Z,20.75
2023-02-09T16:54:33.037Z,24.38
2023-02-09T16:56:59.598Z,22.77
2023-02-09T16:59:26.265Z,24.23
2023-02-09T17:01:52.766Z,22.08
2023-02-09T17:04:19.362Z,27.60
2023-02-09T17:06:50.558Z,26.38
2023-02-09T17:09:17.152Z,24.02
2023-02-09T17:11:43.640Z,23.67
2023-02-09T17:14:11.203Z,23.58
2023-02-09T17:16:41.718Z,30.40
2023-02-09T17:19:16.004Z,31.70
2023-02-09T17:21:42.551Z,25.98
2023-02-09T17:24:14.897Z,25.23
2023-02-09T17:26:41.993Z,25.77
2023-02-09T17:29:09.293Z,22.55
2023-02-09T17:31:51.862Z,26.83
2023-02-09T17:34:20.634Z,26.55
2023-02-09T17:36:47.297Z,22.33
2023-02-09T17:39:14.034Z,21.45
2023-02-09T17:41:46.453Z,26.08
2023-02-09T17:44:39.124Z,21.83
2023-02-09T17:47:14.306Z,25.17
2023-02-09T17:49:41.472Z,31.50
2023-02-09T17:52:15.308Z,33.03
2023-02-09T17:54:41.723Z,28.95
2023-02-09T17:57:12.556Z,27.20
2023-02-09T17:59:39.009Z,29.00
2023-02-09T18:02:14.019Z,34.92
2023-02-09T18:04:42.685Z,31.38
2023-02-09T18:07:10.102Z,25.50
2023-02-09T18:09:36.625Z,21.77
2023-02-09T18:12:10.041Z,30.27
2023-02-09T18:14:36.673Z,29.40
2023-02-09T18:17:04.058Z,25.27
2023-02-09T18:19:31.012Z,26.02
2023-02-09T18:22:00.386Z,28.00
2023-02-09T18:24:29.790Z,27.85
2023-02-09T18:26:56.369Z,26.95
2023-02-09T18:29:26.148Z,27.85
2023-02-09T18:31:52.932Z,28.65
2023-02-09T18:34:19.460Z,25.85
2023-02-09T18:36:45.904Z,26.58
2023-02-09T18:39:15.169Z,33.97
2023-02-09T18:41:41.886Z,25.25
2023-02-09T18:44:08.396Z,21.20
2023-02-09T18:46:34.952Z,24.77
2023-02-09T18:49:03.539Z,25.45
2023-02-09T18:51:31.411Z,30.58
2023-02-09T18:53:58.044Z,28.02
2023-02-09T18:56:26.881Z,27.00
2023-02-09T18:58:53.868Z,26.33
2023-02-09T19:01:22.282Z,26.27
2023-02-09T19:03:53.238Z,22.73
2023-02-09T19:06:21.044Z,27.25
2023-02-09T19:08:50.263Z,27.55
2023-02-09T19:11:19.443Z,26.92
2023-02-09T19:14:05.345Z,30.77
2023-02-09T19:16:31.821Z,37.45
2023-02-09T19:18:59.139Z,33.80
2023-02-09T19:21:25.589Z,30.00
2023-02-09T19:23:53.949Z,28.10
2023-02-09T19:26:20.586Z,30.90
2023-02-09T19:28:48.250Z,32.30
2023-02-09T19:31:17.570Z,26.67
2023-02-09T19:33:44.417Z,29.65
2023-02-09T19:36:10.896Z,28.10
2023-02-09T19:38:37.344Z,31.73
2023-02-09T19:41:12.253Z,26.90
2023-02-09T19:43:39.979Z,25.38
2023-02-09T19:46:07.270Z,30.42
2023-02-09T19:48:33.777Z,24.98
2023-02-09T19:51:00.284Z,23.65
2023-02-09T19:53:27.649Z,29.70
2023-02-09T19:55:55.420Z,30.20
2023-02-09T19:58:22.359Z,30.05
2023-02-09T20:00:50.790Z,28.23
2023-02-09T20:03:18.963Z,30.42
2023-02-09T20:05:45.939Z,31.08
2023-02-09T20:08:16.396Z,31.65
2023-02-09T20:10:44.259Z,31.20
2023-02-09T20:13:14.050Z,32.22
2023-02-09T20:15:42.294Z,27.40
2023-02-09T20:18:09.066Z,34.20
2023-02-09T20:20:35.795Z,28.05
2023-02-09T20:23:06.148Z,30.95
2023-02-09T20:25:32.675Z,32.05
2023-02-09T20:27:59.254Z,33.03
2023-02-09T20:30:25.755Z,28.55
2023-02-09T20:32:52.194Z,29.45
2023-02-09T20:35:19.730Z,30.33
2023-02-09T20:37:46.188Z,26.90
2023-02-09T20:40:12.990Z,29.58
2023-02-09T20:42:58.665Z,29.45
2023-02-09T20:45:43.649Z,27.58
2023-02-09T20:48:10.085Z,28.25
2023-02-09T20:50:36.555Z,38.00
2023-02-09T20:53:03.066Z,27.13
2023-02-09T20:55:30.259Z,29.52
2023-02-09T20:57:57.297Z,29.85
2023-02-09T21:00:23.796Z,30.17
2023-02-09T21:02:50.357Z,28.52
2023-02-09T21:05:17.098Z,30.52
2023-02-09T21:07:44.024Z,30.02
2023-02-09T21:10:12.955Z,31.63
2023-02-09T21:12:39.638Z,30.17
2023-02-09T21:15:06.609Z,35.92
2023-02-09T21:17:33.161Z,35.72
2023-02-09T21:20:00.043Z,35.03
2023-02-09T21:22:26.710Z,31.58
2023-02-09T21:24:53.122Z,34.58
2023-02-09T21:27:20.446Z,40.55
2023-02-09T21:29:47.000Z,34.10
2023-02-09T21:32:15.364Z,36.03
2023-02-09T21:34:42.795Z,29.40
2023-02-09T21:37:13.016Z,31.98
2023-02-09T21:39:40.381Z,33.00
2023-02-09T21:42:25.971Z,30.58
2023-02-09T21:44:54.483Z,34.35
2023-02-09T21:47:28.731Z,36.25
2023-02-09T21:49:55.671Z,32.33
2023-02-09T21:52:22.401Z,32.75
2023-02-09T21:54:49.258Z,34.40
2023-02-09T21:57:15.776Z,36.83
2023-02-09T21:59:42.245Z,33.47
2023-02-09T22:02:13.967Z,33.30
2023-02-09T22:04:40.777Z,34.40
2023-02-09T22:07:07.284Z,32.38
2023-02-09T22:09:33.700Z,37.28
2023-02-09T22:12:00.895Z,34.15
2023-02-09T22:14:28.713Z,35.40
2023-02-09T22:16:55.411Z,34.08
2023-02-09T22:19:23.567Z,39.08
2023-02-09T22:21:50.359Z,34.88
2023-02-09T22:24:17.862Z,35.50
2023-02-09T22:26:45.039Z,39.85
2023-02-09T22:29:13.433Z,37.53
2023-02-09T22:31:40.500Z,34.45
2023-02-09T22:34:07.638Z,35.70
2023-02-09T22:36:35.174Z,40.47
2023-02-09T22:39:02.791Z,38.42
2023-02-09T22:41:29.865Z,36.00
2023-02-09T22:44:01.867Z,34.50
2023-02-09T22:46:36.635Z,39.70
2023-02-09T22:49:06.207Z,38.38
2023-02-09T22:51:34.508Z,35.80
2023-02-09T22:54:01.830Z,37.55
2023-02-09T22:56:30.729Z,40.22
2023-02-09T22:58:58.981Z,35.65
2023-02-09T23:01:26.629Z,35.92
2023-02-09T23:03:54.001Z,35.00
2023-02-09T23:06:27.095Z,36.67
2023-02-09T23:08:55.783Z,38.97
2023-02-09T23:11:22.715Z,39.15
2023-02-09T23:13:51.076Z,38.28
2023-02-09T23:16:25.103Z,40.10
2023-02-09T23:18:56.411Z,37.58
2023-02-09T23:21:25.818Z,39.38
2023-02-09T23:23:53.234Z,38.50
2023-02-09T23:26:20.758Z,37.00
2023-02-09T23:28:47.510Z,34.60
2023-02-09T23:31:16.713Z,37.97
2023-02-09T23:33:43.397Z,37.65
2023-02-09T23:36:13.838Z,38.00
2023-02-09T23:38:41.840Z,40.92
2023-02-09T23:41:11.094Z,43.08
2023-02-09T23:43:38.953Z,39.63
2023-02-09T23:46:08.453Z,37.53
2023-02-09T23:48:35.282Z,37.38
2023-02-09T23:51:04.138Z,39.92
2023-02-09T23:53:31.589Z,37.22
2023-02-09T23:56:03.790Z,33.38
2023-02-09T23:58:36.864Z,34.70
